Time;durP1;ratioP1;P1;durP2;ratioP2;P2;SDS_P1;SDS_P2;PMS_P1;PMS_P2;Temp;Humidity;BMP_temperature;BMP_pressure;BME280_temperature;BME280_humidity;BME280_pressure;Samples;Min_cycle;Max_cycle;Signal;HPM_P1;HPM_P2
2021/12/22 00:01:38;;;;;;;10.20;7.20;;;-2.40;99.90;;;;;;487909;244;27324;-70
2021/12/22 00:03:45;;;;;;;9.80;7.28;;;;;;;;;;487894;244;27404;-70
2021/12/22 00:05:46;;;;;;;9.25;7.50;;;-2.50;99.90;;;;;;488209;239;27184;-70
2021/12/22 00:07:45;;;;;;;10.80;7.15;;;-2.50;99.90;;;;;;487766;243;27954;-70
2021/12/22 00:09:47;;;;;;;11.60;8.43;;;-2.50;99.90;;;;;;487863;244;27957;-70
2021/12/22 00:11:49;;;;;;;12.15;7.53;;;-2.40;99.90;;;;;;487862;242;27309;-70
2021/12/22 00:13:49;;;;;;;9.45;8.10;;;-2.40;99.90;;;;;;487809;243;27364;-70
2021/12/22 00:15:50;;;;;;;14.40;8.40;;;-2.40;99.90;;;;;;487741;244;27068;-70
2021/12/22 00:17:52;;;;;;;10.95;7.82;;;-2.40;99.90;;;;;;487703;244;27164;-70
2021/12/22 00:19:53;;;;;;;11.30;7.60;;;-2.40;99.90;;;;;;487642;244;27336;-70
2021/12/22 00:21:54;;;;;;;10.93;7.70;;;-2.40;99.90;;;;;;487638;242;27507;-70
2021/12/22 00:23:55;;;;;;;10.40;7.00;;;-2.50;99.90;;;;;;487872;244;27824;-70
2021/12/22 00:25:58;;;;;;;7.47;6.68;;;;;;;;;;487894;244;27871;-70
2021/12/22 00:27:59;;;;;;;10.75;7.35;;;-2.50;99.90;;;;;;487884;244;26793;-70
2021/12/22 00:30:00;;;;;;;11.98;8.25;;;-2.60;99.90;;;;;;487824;244;27650;-70
2021/12/22 00:32:10;;;;;;;8.50;6.93;;;-2.60;99.90;;;;;;487904;244;27615;-70
2021/12/22 00:34:17;;;;;;;7.43;5.90;;;-2.60;99.90;;;;;;487735;243;28827;-70
2021/12/22 00:36:13;;;;;;;7.62;6.20;;;-2.60;99.90;;;;;;487514;243;27492;-70
2021/12/22 00:38:14;;;;;;;7.32;5.72;;;-2.60;99.90;;;;;;487865;244;27133;-70
2021/12/22 00:40:16;;;;;;;6.30;5.70;;;-2.60;99.90;;;;;;487854;244;27470;-70
2021/12/22 00:42:17;;;;;;;10.60;7.12;;;-2.60;99.90;;;;;;487882;244;27606;-71
2021/12/22 00:44:22;;;;;;;6.90;5.80;;;;;;;;;;487858;244;27096;-70
2021/12/22 00:46:21;;;;;;;7.45;5.62;;;-2.60;99.90;;;;;;487970;240;26592;-70
2021/12/22 00:48:22;;;;;;;7.05;5.55;;;-2.60;99.90;;;;;;487908;244;27289;-70
2021/12/22 00:50:23;;;;;;;7.65;5.25;;;-2.60;99.90;;;;;;487878;244;27269;-70
2021/12/22 00:52:24;;;;;;;6.05;5.43;;;-2.70;99.90;;;;;;487890;244;27484;-70
2021/12/22 00:54:26;;;;;;;11.57;6.72;;;-2.70;99.90;;;;;;487913;244;27310;-70
2021/12/22 00:56:27;;;;;;;10.70;7.12;;;-2.60;99.90;;;;;;487877;244;27143;-71
2021/12/22 00:58:28;;;;;;;10.07;7.30;;;-2.60;99.90;;;;;;487895;244;27942;-70
2021/12/22 01:00:29;;;;;;;10.95;7.75;;;-2.60;99.90;;;;;;487885;244;28001;-70
2021/12/22 01:02:31;;;;;;;8.35;6.22;;;-2.60;99.90;;;;;;487890;244;27953;-70
2021/12/22 01:04:32;;;;;;;10.90;8.10;;;-2.70;99.90;;;;;;487855;244;27294;-70
2021/12/22 01:06:35;;;;;;;9.70;7.30;;;-2.60;99.90;;;;;;487852;243;27370;-70
2021/12/22 01:08:34;;;;;;;12.50;8.13;;;-2.70;99.90;;;;;;487764;243;27266;-70
2021/12/22 01:10:36;;;;;;;10.88;8.18;;;-2.70;99.90;;;;;;487881;244;27162;-70
2021/12/22 01:12:37;;;;;;;12.57;8.35;;;-2.70;99.90;;;;;;487896;244;27168;-70
2021/12/22 01:14:39;;;;;;;14.55;9.75;;;-2.70;99.90;;;;;;487868;243;27476;-70
2021/12/22 01:16:40;;;;;;;14.45;8.85;;;-2.70;99.90;;;;;;487865;244;27851;-70
2021/12/22 01:18:42;;;;;;;13.75;9.02;;;-2.70;99.90;;;;;;487837;244;28816;-70
2021/12/22 01:23:06;;;;;;;11.02;8.77;;;-2.80;99.90;;;;;;487893;243;27038;-70
2021/12/22 01:25:04;;;;;;;13.88;9.48;;;-2.80;99.90;;;;;;487653;243;27259;-70
2021/12/22 01:27:08;;;;;;;12.55;9.32;;;;;;;;;;487811;243;27316;-70
2021/12/22 01:29:06;;;;;;;12.70;8.98;;;-2.80;99.90;;;;;;488059;239;27316;-70
2021/12/22 01:31:13;;;;;;;12.35;8.27;;;-2.80;99.90;;;;;;487808;244;27344;-70
2021/12/22 01:33:09;;;;;;;12.88;8.43;;;-2.80;99.90;;;;;;487565;243;27501;-70
2021/12/22 01:35:10;;;;;;;11.32;7.70;;;-2.80;99.90;;;;;;487869;244;27358;-71
2021/12/22 01:37:11;;;;;;;11.05;7.90;;;-2.80;99.90;;;;;;487926;244;27251;-71
2021/12/22 01:39:13;;;;;;;11.95;8.70;;;-2.90;99.90;;;;;;487912;244;27316;-70
2021/12/22 01:41:14;;;;;;;14.75;8.75;;;-2.90;99.90;;;;;;487876;244;27152;-70
2021/12/22 01:43:16;;;;;;;13.68;8.55;;;-2.90;99.90;;;;;;487883;244;27634;-70
2021/12/22 01:45:36;;;;;;;11.85;8.63;;;-2.90;99.90;;;;;;487798;244;28343;-71
2021/12/22 01:49:50;;;;;;;10.13;7.10;;;-2.90;99.90;;;;;;487848;243;27538;-70
2021/12/22 01:51:50;;;;;;;8.85;6.68;;;-3.00;99.90;;;;;;487830;244;27693;-70
2021/12/22 01:53:53;;;;;;;11.20;7.37;;;;;;;;;;487863;244;27807;-70
2021/12/22 01:56:00;;;;;;;7.70;6.07;;;-3.10;99.90;;;;;;487854;244;26715;-70
2021/12/22 01:57:55;;;;;;;8.20;6.70;;;-3.10;99.90;;;;;;487529;243;27424;-70
2021/12/22 01:59:56;;;;;;;8.27;6.72;;;-3.10;99.90;;;;;;487829;244;27654;-70
2021/12/22 02:01:58;;;;;;;7.32;6.18;;;-3.20;99.90;;;;;;487881;244;27808;-70
2021/12/22 02:03:59;;;;;;;8.40;6.30;;;-3.30;99.90;;;;;;487935;244;27631;-70
2021/12/22 02:06:02;;;;;;;8.57;6.40;;;-3.30;99.90;;;;;;487878;244;27127;-70
2021/12/22 02:08:07;;;;;;;9.18;7.15;;;;;;;;;;487797;243;27166;-70
2021/12/22 02:10:20;;;;;;;7.60;5.97;;;-3.40;99.90;;;;;;488039;239;27078;-70
2021/12/22 02:12:06;;;;;;;7.53;6.55;;;-3.50;99.90;;;;;;486991;243;27545;-70
2021/12/22 02:14:08;;;;;;;8.65;6.50;;;;;;;;;;487821;243;28675;-71
2021/12/22 02:16:13;;;;;;;6.47;5.80;;;;;;;;;;487625;244;26843;-70
2021/12/22 02:18:17;;;;;;;6.72;6.03;;;-3.60;99.90;;;;;;487643;244;26633;-70
2021/12/22 02:20:13;;;;;;;8.25;6.05;;;-3.60;99.90;;;;;;487551;243;27057;-70
2021/12/22 02:22:16;;;;;;;7.90;6.10;;;-3.60;99.90;;;;;;487818;244;27108;-70
2021/12/22 02:24:15;;;;;;;7.55;5.85;;;-3.60;99.90;;;;;;487813;243;27136;-70
2021/12/22 02:26:21;;;;;;;7.95;6.57;;;-3.60;99.90;;;;;;487728;244;27595;-71
2021/12/22 02:28:24;;;;;;;8.40;6.47;;;;;;;;;;487653;243;27910;-70
2021/12/22 02:30:28;;;;;;;8.13;6.32;;;-3.60;99.90;;;;;;487513;243;26702;-70
2021/12/22 02:34:38;;;;;;;8.57;6.80;;;;;;;;;;483271;243;27618;-70
2021/12/22 02:36:38;;;;;;;12.13;8.20;;;;;;;;;;487315;243;26841;-69
2021/12/22 02:38:34;;;;;;;13.38;9.90;;;;;;;;;;487491;243;27113;-70
2021/12/22 02:40:36;;;;;;;16.42;10.52;;;-3.30;99.90;;;;;;487901;244;26596;-69
2021/12/22 02:42:38;;;;;;;14.73;10.27;;;;;;;;;;487800;243;27209;-70
2021/12/22 02:44:39;;;;;;;12.25;9.50;;;-3.30;99.90;;;;;;487923;244;26636;-69
2021/12/22 02:46:42;;;;;;;12.55;8.10;;;;;;;;;;487898;244;27086;-70
2021/12/22 02:48:43;;;;;;;10.95;8.10;;;-3.30;99.90;;;;;;487825;244;26627;-69
2021/12/22 02:50:44;;;;;;;13.80;9.10;;;-3.30;99.90;;;;;;487925;244;27061;-70
2021/12/22 02:54:55;;;;;;;10.95;8.32;;;-3.40;99.90;;;;;;487833;244;27629;-70
2021/12/22 02:56:56;;;;;;;13.02;8.35;;;-3.40;99.90;;;;;;487567;243;28617;-70
2021/12/22 03:01:24;;;;;;;11.60;8.98;;;;;;;;;;487874;244;28683;-69
2021/12/22 03:03:16;;;;;;;11.55;8.70;;;-3.40;99.90;;;;;;486799;243;26623;-69
2021/12/22 03:05:10;;;;;;;12.20;7.70;;;-3.40;99.90;;;;;;487430;243;27053;-70
2021/12/22 03:07:15;;;;;;;9.35;7.35;;;;;;;;;;487852;244;27158;-69
2021/12/22 03:09:15;;;;;;;12.57;9.05;;;;;;;;;;487696;243;26699;-70
2021/12/22 03:11:18;;;;;;;14.52;10.00;;;;;;;;;;487910;243;26631;-71
2021/12/22 03:13:19;;;;;;;11.30;8.70;;;-3.40;99.90;;;;;;487867;244;26645;-70
2021/12/22 03:15:21;;;;;;;13.77;9.15;;;-3.30;99.90;;;;;;487811;244;28347;-70
2021/12/22 03:17:23;;;;;;;11.18;8.77;;;;;;;;;;487804;244;27592;-70
2021/12/22 03:19:25;;;;;;;11.95;8.25;;;;;;;;;;487843;244;26611;-69
2021/12/22 03:21:28;;;;;;;10.27;7.28;;;;;;;;;;487807;244;26675;-70
2021/12/22 03:23:30;;;;;;;11.20;8.77;;;;;;;;;;487909;244;26742;-70
2021/12/22 03:25:33;;;;;;;10.35;7.28;;;;;;;;;;487852;244;26624;-70
2021/12/22 03:27:34;;;;;;;12.07;8.18;;;-3.50;99.90;;;;;;487901;243;27075;-70
2021/12/22 03:29:36;;;;;;;10.73;7.55;;;;;;;;;;487903;244;27980;-69
2021/12/22 03:31:39;;;;;;;13.77;8.93;;;;;;;;;;487746;244;27162;-69
2021/12/22 03:33:41;;;;;;;14.30;9.80;;;;;;;;;;487906;244;26714;-70
2021/12/22 03:35:42;;;;;;;13.05;8.70;;;-3.40;99.90;;;;;;487873;244;27128;-70
2021/12/22 03:37:43;;;;;;;13.55;10.10;;;-3.40;99.90;;;;;;487813;244;27938;-70
2021/12/22 03:39:45;;;;;;;11.50;8.55;;;-3.60;99.90;;;;;;487896;244;27488;-69
2021/12/22 03:41:47;;;;;;;16.08;9.82;;;;;;;;;;487817;244;27183;-69
2021/12/22 03:43:50;;;;;;;14.38;9.18;;;;;;;;;;487874;244;27481;-70
2021/12/22 03:45:51;;;;;;;14.32;9.40;;;-4.00;99.90;;;;;;487887;244;26592;-70
2021/12/22 03:47:52;;;;;;;18.58;9.60;;;-4.10;99.90;;;;;;487808;244;27481;-70
2021/12/22 03:49:53;;;;;;;15.65;8.98;;;-4.00;99.90;;;;;;487902;244;27506;-70
2021/12/22 03:51:55;;;;;;;10.23;8.13;;;-3.90;99.90;;;;;;487874;244;28115;-70
2021/12/22 03:53:57;;;;;;;11.93;8.70;;;;;;;;;;487875;244;27521;-70
2021/12/22 03:56:00;;;;;;;12.23;8.35;;;;;;;;;;487864;244;26638;-70
2021/12/22 03:58:02;;;;;;;11.25;8.35;;;;;;;;;;487875;244;26595;-69
2021/12/22 04:00:03;;;;;;;14.60;8.75;;;-3.70;99.90;;;;;;487835;244;26698;-70
2021/12/22 04:02:05;;;;;;;12.88;8.90;;;-3.70;99.90;;;;;;487875;244;27817;-70
2021/12/22 04:04:14;;;;;;;13.85;10.50;;;;;;;;;;487710;244;27978;-70
2021/12/22 04:06:08;;;;;;;17.23;11.98;;;-3.70;99.90;;;;;;487151;243;27277;-70
2021/12/22 04:08:11;;;;;;;16.95;11.07;;;-3.60;99.90;;;;;;487785;244;27669;-69
2021/12/22 04:10:21;;;;;;;23.08;12.15;;;-3.60;99.90;;;;;;487756;244;28708;-71
2021/12/22 04:12:21;;;;;;;18.98;12.82;;;-3.60;99.90;;;;;;487818;244;27475;-70
2021/12/22 04:14:23;;;;;;;20.70;13.90;;;;;;;;;;487830;244;27847;-70
2021/12/22 04:16:25;;;;;;;20.37;13.52;;;-3.60;99.90;;;;;;487860;244;26674;-70
2021/12/22 04:18:26;;;;;;;22.55;14.95;;;-3.60;99.90;;;;;;487890;244;27541;-70
2021/12/22 04:20:29;;;;;;;20.73;14.20;;;-3.60;99.90;;;;;;487737;244;28845;-70
2021/12/22 04:22:28;;;;;;;22.90;13.73;;;-3.60;99.90;;;;;;487836;244;27179;-70
2021/12/22 04:24:30;;;;;;;20.23;13.45;;;-3.60;99.90;;;;;;487880;243;27250;-70
2021/12/22 04:26:32;;;;;;;16.90;12.02;;;-3.60;99.90;;;;;;487822;244;27145;-69
2021/12/22 04:28:33;;;;;;;21.90;13.27;;;;;;;;;;487825;243;27465;-70
2021/12/22 04:30:36;;;;;;;20.67;13.55;;;;;;;;;;487792;244;26878;-70
2021/12/22 04:32:37;;;;;;;17.77;12.45;;;-3.60;99.90;;;;;;487793;244;27201;-70
2021/12/22 04:34:40;;;;;;;19.17;13.40;;;;;;;;;;487885;244;27683;-70
2021/12/22 04:36:41;;;;;;;15.45;11.38;;;-3.70;99.90;;;;;;487843;244;26642;-70
2021/12/22 04:38:42;;;;;;;18.00;12.05;;;-3.70;99.90;;;;;;487897;243;27954;-70
2021/12/22 04:40:44;;;;;;;16.02;11.40;;;;;;;;;;487867;244;27765;-70
2021/12/22 04:42:47;;;;;;;15.02;11.30;;;;;;;;;;487805;244;26646;-70
2021/12/22 04:44:52;;;;;;;17.85;11.82;;;-3.70;99.90;;;;;;487815;244;26718;-71
2021/12/22 04:46:51;;;;;;;16.65;11.65;;;;;;;;;;487569;243;27101;-70
2021/12/22 04:48:52;;;;;;;16.37;11.50;;;-3.70;99.90;;;;;;487855;244;27097;-70
2021/12/22 04:50:53;;;;;;;19.00;13.40;;;-3.60;99.90;;;;;;487890;244;27323;-69
2021/12/22 04:53:04;;;;;;;18.98;11.95;;;;;;;;;;487799;244;27148;-70
2021/12/22 04:55:04;;;;;;;21.20;12.50;;;;;;;;;;487550;243;26647;-70
2021/12/22 04:57:06;;;;;;;15.63;10.90;;;;;;;;;;487814;244;26706;-70
2021/12/22 04:59:08;;;;;;;18.98;13.15;;;;;;;;;;487822;244;26607;-70
2021/12/22 05:01:11;;;;;;;14.82;10.68;;;;;;;;;;487840;244;26479;-70
2021/12/22 05:03:13;;;;;;;12.43;9.13;;;;;;;;;;487811;244;27323;-69
2021/12/22 05:05:14;;;;;;;17.92;12.13;;;-3.90;99.90;;;;;;487870;244;26601;-69
2021/12/22 05:07:16;;;;;;;14.68;9.95;;;-3.90;99.90;;;;;;487899;244;27492;-69
2021/12/22 05:09:17;;;;;;;15.35;10.50;;;-3.90;99.90;;;;;;487760;244;27459;-70
2021/12/22 05:11:18;;;;;;;13.73;10.13;;;-3.90;99.90;;;;;;487872;244;27995;-70
2021/12/22 05:13:21;;;;;;;12.77;9.23;;;;;;;;;;487827;244;27931;-69
2021/12/22 05:15:23;;;;;;;14.05;10.13;;;-4.00;99.90;;;;;;487829;244;26950;-69
2021/12/22 05:18:01;;;;;;;10.88;8.77;;;-4.00;99.90;;;;;;487837;243;27469;-70
2021/12/22 05:19:41;;;;;;;12.70;8.40;;;;;;;;;;486530;244;27548;-70
2021/12/22 05:21:42;;;;;;;12.68;8.77;;;-4.00;99.90;;;;;;487806;244;26682;-69
2021/12/22 05:23:43;;;;;;;12.68;8.68;;;-4.00;99.90;;;;;;487852;244;27453;-70
2021/12/22 05:25:45;;;;;;;10.32;8.15;;;-4.00;99.90;;;;;;487771;244;27528;-70
2021/12/22 05:27:47;;;;;;;9.93;7.85;;;;;;;;;;487899;244;27929;-70
2021/12/22 05:29:48;;;;;;;11.05;7.72;;;-4.00;99.90;;;;;;487852;244;26943;-70
2021/12/22 05:31:54;;;;;;;13.60;8.10;;;-4.00;99.90;;;;;;487757;244;27470;-70
2021/12/22 05:33:51;;;;;;;10.00;7.18;;;-4.10;99.90;;;;;;487572;243;27532;-69
2021/12/22 05:35:53;;;;;;;9.23;7.30;;;;;;;;;;487810;244;27832;-69
2021/12/22 05:37:56;;;;;;;8.45;7.32;;;;;;;;;;487895;244;26911;-70
2021/12/22 05:39:58;;;;;;;14.15;9.57;;;;;;;;;;487873;244;26654;-70
2021/12/22 05:42:01;;;;;;;12.80;9.30;;;-4.10;99.90;;;;;;487838;244;26584;-69
2021/12/22 05:44:02;;;;;;;11.70;8.55;;;;;;;;;;487780;244;27575;-69
2021/12/22 05:46:03;;;;;;;16.33;11.68;;;-4.20;99.90;;;;;;487798;244;27153;-69
2021/12/22 05:48:06;;;;;;;18.67;11.60;;;;;;;;;;487790;244;27465;-69
2021/12/22 05:50:07;;;;;;;20.85;12.37;;;-4.30;99.90;;;;;;485064;244;27241;-70
2021/12/22 05:52:09;;;;;;;20.30;13.20;;;;;;;;;;487803;244;28007;-69
2021/12/22 05:54:10;;;;;;;20.52;13.20;;;-4.30;99.90;;;;;;487827;244;27061;-70
2021/12/22 05:56:13;;;;;;;24.50;13.82;;;;;;;;;;487837;244;28039;-69
2021/12/22 05:58:14;;;;;;;24.17;12.95;;;-4.30;99.90;;;;;;487773;244;26607;-69
2021/12/22 06:00:17;;;;;;;22.25;13.07;;;;;;;;;;487796;244;27532;-69
2021/12/22 06:02:19;;;;;;;22.60;12.85;;;;;;;;;;487757;244;27319;-69
2021/12/22 06:04:22;;;;;;;22.85;12.50;;;;;;;;;;487765;244;27794;-69
2021/12/22 06:06:24;;;;;;;21.90;12.65;;;;;;;;;;487856;244;26594;-69
2021/12/22 06:08:26;;;;;;;21.52;12.07;;;;;;;;;;487805;244;27144;-69
2021/12/22 06:10:28;;;;;;;23.00;12.13;;;-4.30;99.90;;;;;;487831;244;26658;-69
2021/12/22 06:12:30;;;;;;;24.70;14.10;;;;;;;;;;487847;244;27978;-69
2021/12/22 06:14:33;;;;;;;22.75;13.13;;;;;;;;;;487815;244;26869;-69
2021/12/22 06:16:34;;;;;;;27.52;14.55;;;-4.40;99.90;;;;;;487824;244;26911;-69
2021/12/22 06:18:41;;;;;;;29.85;15.50;;;-4.40;99.90;;;;;;487833;244;27467;-70
2021/12/22 06:20:36;;;;;;;25.10;15.45;;;-4.40;99.90;;;;;;487461;243;27491;-69
2021/12/22 06:22:37;;;;;;;31.08;15.80;;;-4.40;99.90;;;;;;487799;244;27603;-69
2021/12/22 06:24:40;;;;;;;24.50;16.10;;;;;;;;;;487797;244;27515;-70
2021/12/22 06:26:42;;;;;;;28.95;15.10;;;;;;;;;;487850;244;27127;-69
2021/12/22 06:28:44;;;;;;;25.08;15.02;;;-4.40;99.90;;;;;;487860;244;27393;-69
2021/12/22 06:30:46;;;;;;;26.73;16.33;;;;;;;;;;487765;244;27575;-69
2021/12/22 06:32:49;;;;;;;23.87;14.55;;;;;;;;;;487842;244;26801;-69
2021/12/22 06:34:50;;;;;;;23.00;14.05;;;-4.70;99.90;;;;;;487790;244;26927;-69
2021/12/22 06:36:51;;;;;;;21.33;13.70;;;-4.70;99.90;;;;;;487800;244;27622;-69
2021/12/22 06:38:54;;;;;;;26.17;14.60;;;;;;;;;;487809;244;27507;-69
2021/12/22 06:40:55;;;;;;;25.60;16.10;;;-4.60;99.90;;;;;;487792;244;27499;-69
2021/12/22 06:42:56;;;;;;;26.55;15.68;;;-4.50;99.90;;;;;;487829;244;27527;-69
2021/12/22 06:44:57;;;;;;;24.75;15.48;;;-4.50;99.90;;;;;;487847;244;27467;-69
2021/12/22 06:47:00;;;;;;;23.40;15.30;;;;;;;;;;487716;244;27950;-70
2021/12/22 06:49:02;;;;;;;24.50;15.52;;;;;;;;;;487871;244;26603;-69
2021/12/22 06:51:03;;;;;;;24.30;14.68;;;-4.40;99.90;;;;;;487529;244;27482;-69
2021/12/22 06:53:05;;;;;;;22.20;14.65;;;-4.40;99.90;;;;;;487766;244;27527;-69
2021/12/22 06:55:07;;;;;;;19.30;13.57;;;;;;;;;;487841;244;27471;-69
2021/12/22 06:57:08;;;;;;;23.38;14.40;;;-4.40;99.90;;;;;;487768;244;27323;-69
2021/12/22 06:59:12;;;;;;;18.67;13.13;;;-4.40;99.90;;;;;;487747;244;27467;-69
2021/12/22 07:01:17;;;;;;;19.60;12.65;;;-4.60;99.90;;;;;;487710;243;27045;-69
2021/12/22 07:03:13;;;;;;;19.73;11.95;;;-4.70;99.90;;;;;;487529;243;27519;-69
2021/12/22 07:05:13;;;;;;;19.92;11.77;;;-4.80;99.90;;;;;;487896;244;27544;-69
2021/12/22 07:07:16;;;;;;;17.25;11.15;;;;;;;;;;487871;244;27946;-72
2021/12/22 07:09:17;;;;;;;20.25;11.85;;;-4.80;99.90;;;;;;487851;244;26841;-72
2021/12/22 07:11:18;;;;;;;20.40;13.80;;;-4.80;99.90;;;;;;487832;244;27543;-74
2021/12/22 07:13:20;;;;;;;22.45;14.32;;;-4.60;99.90;;;;;;487810;244;27483;-71
2021/12/22 07:15:21;;;;;;;21.73;14.13;;;-4.50;99.90;;;;;;487891;244;27976;-72
2021/12/22 07:17:23;;;;;;;21.27;14.38;;;;;;;;;;487883;244;27504;-71
2021/12/22 07:19:25;;;;;;;24.92;14.43;;;-4.50;99.90;;;;;;487822;244;27579;-73
2021/12/22 07:21:26;;;;;;;22.92;14.45;;;-4.50;99.90;;;;;;487849;244;27997;-72
2021/12/22 07:23:27;;;;;;;20.65;13.07;;;-4.50;99.90;;;;;;487808;244;27514;-72
2021/12/22 07:25:28;;;;;;;18.50;12.68;;;-4.50;99.90;;;;;;487829;244;27492;-72
2021/12/22 07:27:30;;;;;;;20.25;12.73;;;-4.60;99.90;;;;;;487881;244;27576;-71
2021/12/22 07:29:31;;;;;;;18.23;12.88;;;-4.70;99.90;;;;;;487824;244;27860;-72
2021/12/22 07:31:32;;;;;;;17.27;11.65;;;-4.80;99.90;;;;;;487893;244;27520;-70
2021/12/22 07:33:33;;;;;;;19.95;12.37;;;-4.80;99.90;;;;;;487163;243;28051;-72
2021/12/22 07:35:36;;;;;;;17.40;11.80;;;;;;;;;;487793;244;29019;-72
2021/12/22 07:37:38;;;;;;;17.98;11.40;;;;;;;;;;487919;244;26876;-71
2021/12/22 07:39:39;;;;;;;14.45;10.73;;;-5.10;99.90;;;;;;487857;244;26908;-72
2021/12/22 07:41:42;;;;;;;15.00;10.50;;;;;;;;;;487802;243;27549;-72
2021/12/22 07:43:43;;;;;;;17.42;10.93;;;-5.00;99.90;;;;;;487860;244;27440;-73
2021/12/22 07:45:46;;;;;;;14.10;9.50;;;;;;;;;;487837;244;27523;-72
2021/12/22 07:47:47;;;;;;;12.32;8.82;;;-4.90;99.90;;;;;;487839;244;27168;-72
2021/12/22 07:49:50;;;;;;;14.23;10.00;;;;;;;;;;487877;244;27982;-72
2021/12/22 07:51:51;;;;;;;14.23;9.48;;;-4.80;99.90;;;;;;487782;244;27362;-71
2021/12/22 07:53:53;;;;;;;11.65;9.05;;;;;;;;;;487878;244;27549;-71
2021/12/22 07:55:54;;;;;;;14.63;9.15;;;-4.70;99.90;;;;;;487824;244;26932;-71
2021/12/22 07:57:55;;;;;;;12.18;8.65;;;-4.60;99.90;;;;;;487857;244;27548;-73
2021/12/22 07:59:57;;;;;;;13.70;9.90;;;-4.60;99.90;;;;;;487826;244;27475;-71
2021/12/22 08:01:58;;;;;;;13.15;9.35;;;-4.70;99.90;;;;;;487785;244;27500;-72
2021/12/22 08:03:59;;;;;;;10.57;8.35;;;-4.70;99.90;;;;;;487862;244;28036;-70
2021/12/22 08:06:00;;;;;;;13.45;9.55;;;-4.70;99.90;;;;;;487861;244;27939;-72
2021/12/22 08:08:03;;;;;;;14.02;8.55;;;;;;;;;;487802;244;27511;-72
2021/12/22 08:10:04;;;;;;;12.07;8.80;;;-4.70;99.90;;;;;;487879;244;27621;-71
2021/12/22 08:12:05;;;;;;;11.95;9.20;;;-4.80;99.90;;;;;;487773;244;28115;-72
2021/12/22 08:14:07;;;;;;;11.98;8.70;;;-4.80;99.90;;;;;;487835;244;27455;-72
2021/12/22 08:16:09;;;;;;;15.65;9.95;;;;;;;;;;487853;244;27595;-71
2021/12/22 08:18:10;;;;;;;12.02;8.65;;;-4.90;99.90;;;;;;487792;244;27349;-72
2021/12/22 08:20:12;;;;;;;11.70;8.43;;;-4.90;99.90;;;;;;487719;244;28829;-72
2021/12/22 08:22:14;;;;;;;16.10;10.23;;;;;;;;;;487672;244;27539;-71
2021/12/22 08:24:17;;;;;;;14.63;10.10;;;;;;;;;;487498;244;26631;-72
2021/12/22 08:26:19;;;;;;;13.50;9.50;;;;;;;;;;487613;244;27562;-71
2021/12/22 08:28:20;;;;;;;14.93;8.93;;;-4.70;99.90;;;;;;487900;244;27307;-72
2021/12/22 08:30:21;;;;;;;12.50;8.85;;;-4.60;99.90;;;;;;487799;244;27448;-71
2021/12/22 08:32:23;;;;;;;14.65;9.45;;;-4.50;99.90;;;;;;487815;244;27519;-72
2021/12/22 08:34:28;;;;;;;14.93;9.57;;;-4.50;99.90;;;;;;487772;244;27507;-71
2021/12/22 08:38:53;;;;;;;16.52;9.73;;;;;;;;;;487882;243;27638;-71
2021/12/22 08:40:53;;;;;;;12.65;9.65;;;-4.30;99.90;;;;;;487793;244;27398;-72
2021/12/22 08:42:54;;;;;;;14.80;9.57;;;-4.20;99.90;;;;;;487865;244;27502;-73
2021/12/22 08:44:56;;;;;;;11.80;8.60;;;-4.10;99.90;;;;;;487794;244;27532;-71
2021/12/22 08:46:58;;;;;;;11.95;8.93;;;;;;;;;;487891;244;28007;-71
2021/12/22 08:48:59;;;;;;;13.13;9.55;;;-4.10;99.90;;;;;;487828;244;26820;-71
2021/12/22 08:51:02;;;;;;;16.25;9.85;;;;;;;;;;487808;244;27594;-72
2021/12/22 08:53:03;;;;;;;13.82;9.50;;;-4.10;99.90;;;;;;487851;244;27003;-72
2021/12/22 08:55:06;;;;;;;13.62;9.82;;;;;;;;;;487821;244;27467;-71
2021/12/22 08:57:07;;;;;;;14.98;10.00;;;-4.10;99.90;;;;;;487828;244;27098;-72
2021/12/22 08:59:08;;;;;;;12.45;9.15;;;-4.00;99.90;;;;;;487863;244;27599;-71
2021/12/22 09:01:10;;;;;;;14.93;9.32;;;;;;;;;;487770;244;27547;-71
2021/12/22 09:03:13;;;;;;;19.10;13.50;;;;;;;;;;487835;244;26591;-71
2021/12/22 09:05:14;;;;;;;18.25;11.80;;;-3.60;99.90;;;;;;487871;244;26792;-70
2021/12/22 09:07:15;;;;;;;17.62;11.52;;;-3.40;99.90;;;;;;487801;244;27506;-72
2021/12/22 09:09:18;;;;;;;18.50;12.77;;;;;;;;;;487851;244;27451;-71
2021/12/22 09:11:19;;;;;;;19.75;12.40;;;-3.30;99.90;;;;;;487847;244;26655;-72
2021/12/22 09:13:22;;;;;;;19.67;11.70;;;;;;;;;;487729;244;27451;-72
2021/12/22 09:15:24;;;;;;;19.42;12.48;;;;;;;;;;487841;244;26860;-71
2021/12/22 09:17:26;;;;;;;16.37;12.07;;;;;;;;;;487854;243;26703;-72
2021/12/22 09:19:29;;;;;;;17.42;11.25;;;;;;;;;;487802;244;26728;-72
2021/12/22 09:21:31;;;;;;;18.95;12.73;;;;;;;;;;487868;244;27055;-72
2021/12/22 09:23:34;;;;;;;17.02;11.70;;;;;;;;;;487802;244;27067;-72
2021/12/22 09:25:36;;;;;;;17.20;11.45;;;;;;;;;;487734;244;26690;-72
2021/12/22 09:27:38;;;;;;;19.33;13.18;;;-2.60;99.90;;;;;;487865;244;26859;-72
2021/12/22 09:29:39;;;;;;;15.25;11.12;;;-2.60;99.90;;;;;;487760;244;28703;-71
2021/12/22 09:31:40;;;;;;;15.32;10.77;;;-2.50;99.90;;;;;;487821;244;27438;-71
2021/12/22 09:33:41;;;;;;;17.87;12.00;;;-2.50;99.90;;;;;;487840;244;27254;-72
2021/12/22 09:35:42;;;;;;;16.20;10.60;;;-2.50;99.90;;;;;;487835;244;27171;-72
2021/12/22 09:37:44;;;;;;;15.95;10.48;;;-2.40;99.90;;;;;;487798;244;27229;-72
2021/12/22 09:39:45;;;;;;;15.63;11.00;;;-2.40;99.90;;;;;;487784;244;27475;-72
2021/12/22 09:41:46;;;;;;;14.70;10.60;;;-2.30;99.90;;;;;;487845;244;28032;-72
2021/12/22 09:43:47;;;;;;;14.38;9.80;;;-2.30;99.90;;;;;;487838;244;27836;-73
2021/12/22 09:45:55;;;;;;;15.45;11.05;;;-2.20;99.90;;;;;;487780;244;27466;-72
2021/12/22 09:48:02;;;;;;;14.10;9.77;;;-2.20;99.90;;;;;;487530;243;28051;-70
2021/12/22 09:50:09;;;;;;;20.20;12.30;;;-2.10;99.90;;;;;;487004;243;29018;-72
2021/12/22 09:52:21;;;;;;;17.75;11.65;;;-2.00;99.90;;;;;;487677;243;28197;-71
2021/12/22 09:54:18;;;;;;;17.12;10.70;;;-1.90;99.90;;;;;;487663;243;27494;-73
2021/12/22 09:56:22;;;;;;;16.77;12.40;;;-1.90;99.90;;;;;;487827;244;27277;-72
2021/12/22 09:58:20;;;;;;;16.25;11.05;;;-1.90;99.90;;;;;;487694;243;27499;-72
2021/12/22 10:00:22;;;;;;;18.98;12.93;;;-1.80;99.90;;;;;;487846;244;28828;-70
2021/12/22 10:02:25;;;;;;;26.55;15.18;;;-1.80;99.90;;;;;;487701;244;29099;-72
2021/12/22 10:04:24;;;;;;;26.17;16.12;;;-1.70;99.90;;;;;;487714;243;27432;-73
2021/12/22 10:06:25;;;;;;;21.70;14.70;;;-1.60;99.90;;;;;;487756;244;27439;-72
2021/12/22 10:08:27;;;;;;;26.08;15.85;;;-1.60;99.90;;;;;;487811;244;27512;-72
2021/12/22 10:10:30;;;;;;;24.77;15.43;;;-1.50;99.90;;;;;;487823;244;27732;-71
2021/12/22 10:12:29;;;;;;;25.52;15.63;;;-1.50;99.90;;;;;;487700;243;27956;-72
2021/12/22 10:14:30;;;;;;;25.85;17.12;;;-1.50;99.90;;;;;;487770;244;27512;-72
2021/12/22 10:16:32;;;;;;;21.55;14.70;;;-1.40;99.90;;;;;;487837;244;27485;-73
2021/12/22 10:18:33;;;;;;;25.37;16.10;;;-1.40;99.90;;;;;;487756;244;27503;-71
2021/12/22 10:20:34;;;;;;;22.42;14.63;;;-1.40;99.90;;;;;;487870;244;27554;-73
2021/12/22 10:22:35;;;;;;;22.17;15.02;;;-1.30;99.90;;;;;;487808;244;27566;-72
2021/12/22 10:24:37;;;;;;;27.35;14.57;;;-1.30;99.90;;;;;;487857;244;27958;-71
2021/12/22 10:26:38;;;;;;;21.98;14.45;;;-1.30;99.90;;;;;;487786;244;29007;-72
2021/12/22 10:28:39;;;;;;;25.92;14.93;;;-1.30;99.90;;;;;;487700;244;27464;-71
2021/12/22 10:30:41;;;;;;;21.95;15.10;;;-1.30;99.90;;;;;;487883;244;27608;-72
2021/12/22 10:32:42;;;;;;;21.17;13.98;;;-1.20;99.90;;;;;;487850;244;27491;-72
2021/12/22 10:34:43;;;;;;;23.77;15.50;;;-1.10;99.90;;;;;;487804;244;27538;-71
2021/12/22 10:36:44;;;;;;;25.00;16.20;;;-1.10;99.90;;;;;;487858;244;27904;-71
2021/12/22 10:38:46;;;;;;;22.85;15.10;;;-1.00;99.90;;;;;;487753;244;29867;-72
2021/12/22 10:40:47;;;;;;;22.35;15.93;;;-1.00;99.90;;;;;;487873;244;27506;-74
2021/12/22 10:42:48;;;;;;;28.73;16.83;;;-0.90;99.90;;;;;;487869;244;27546;-72
2021/12/22 10:44:49;;;;;;;23.73;15.25;;;-0.90;99.90;;;;;;487826;244;27542;-73
2021/12/22 10:46:51;;;;;;;28.27;16.92;;;-0.90;99.90;;;;;;487895;244;27468;-71
2021/12/22 10:51:11;;;;;;;30.33;17.23;;;-0.80;99.90;;;;;;487805;243;27972;-72
2021/12/22 10:53:13;;;;;;;28.35;17.52;;;-0.80;99.90;;;;;;487870;244;27954;-72
2021/12/22 10:55:14;;;;;;;29.55;17.60;;;-0.70;99.90;;;;;;487828;244;27547;-72
2021/12/22 10:57:15;;;;;;;28.17;17.77;;;-0.70;99.90;;;;;;487881;244;27529;-73
2021/12/22 10:59:16;;;;;;;27.15;16.98;;;-0.70;99.90;;;;;;487890;244;27455;-72
2021/12/22 11:01:18;;;;;;;25.20;15.50;;;-0.70;99.90;;;;;;487809;244;27511;-72
2021/12/22 11:03:19;;;;;;;29.25;16.55;;;-0.60;99.90;;;;;;487777;244;27947;-72
2021/12/22 11:05:27;;;;;;;25.27;16.40;;;-0.60;99.90;;;;;;487866;244;28042;-71